sensor_id;sensor_type;location;lat;lon;timestamp;temperature;humidity
30063;DHT22;16889;67.864;24.990;2024-03-23T00:56:18;-3.30;99.90
30063;DHT22;16889;67.864;24.990;2024-03-23T01:01:04;-3.20;99.90
30063;DHT22;16889;67.864;24.990;2024-03-23T01:05:50;-3.30;99.90
30063;DHT22;16889;67.864;24.990;2024-03-23T01:10:38;-3.40;99.90
30063;DHT22;16889;67.864;24.990;2024-03-23T01:15:24;-3.40;99.90
30063;DHT22;16889;67.864;24.990;2024-03-23T01:20:10;-3.40;99.90
30063;DHT22;16889;67.864;24.990;2024-03-23T01:24:56;-3.40;99.90
30063;DHT22;16889;67.864;24.990;2024-03-23T01:29:42;-3.50;99.90
30063;DHT22;16889;67.864;24.990;2024-03-23T01:34:28;-3.60;99.90
30063;DHT22;16889;67.864;24.990;2024-03-23T01:39:14;-3.70;99.90
30063;DHT22;16889;67.864;24.990;2024-03-23T01:44:05;-3.70;99.90
30063;DHT22;16889;67.864;24.990;2024-03-23T01:48:51;-3.70;99.90
30063;DHT22;16889;67.864;24.990;2024-03-23T01:53:37;-3.80;99.90
30063;DHT22;16889;67.864;24.990;2024-03-23T01:58:23;-3.80;99.90
30063;DHT22;16889;67.864;24.990;2024-03-23T02:03:25;-3.90;99.90
30063;DHT22;16889;67.864;24.990;2024-03-23T02:08:11;-3.90;99.90
30063;DHT22;16889;67.864;24.990;2024-03-23T02:12:58;-4.10;99.90
30063;DHT22;16889;67.864;24.990;2024-03-23T02:17:44;-4.10;99.90
30063;DHT22;16889;67.864;24.990;2024-03-23T02:22:53;-4.10;99.90
30063;DHT22;16889;67.864;24.990;2024-03-23T02:27:39;-4.10;99.90
30063;DHT22;16889;67.864;24.990;2024-03-23T02:32:26;-4.10;99.90
30063;DHT22;16889;67.864;24.990;2024-03-23T02:37:12;-4.20;99.90
30063;DHT22;16889;67.864;24.990;2024-03-23T02:41:59;-4.30;99.90
30063;DHT22;16889;67.864;24.990;2024-03-23T02:46:45;-4.40;99.90
30063;DHT22;16889;67.864;24.990;2024-03-23T02:51:31;-4.40;99.90
30063;DHT22;16889;67.864;24.990;2024-03-23T02:56:17;-4.40;99.90
30063;DHT22;16889;67.864;24.990;2024-03-23T03:01:03;-4.40;99.90
30063;DHT22;16889;67.864;24.990;2024-03-23T03:05:55;-4.50;99.90
30063;DHT22;16889;67.864;24.990;2024-03-23T03:10:41;-4.60;99.90
30063;DHT22;16889;67.864;24.990;2024-03-23T03:15:27;-4.60;99.90
30063;DHT22;16889;67.864;24.990;2024-03-23T03:20:16;-4.60;99.90
30063;DHT22;16889;67.864;24.990;2024-03-23T03:25:03;-4.60;99.90
30063;DHT22;16889;67.864;24.990;2024-03-23T03:29:51;-4.70;99.90
30063;DHT22;16889;67.864;24.990;2024-03-23T03:34:37;-4.70;99.90
30063;DHT22;16889;67.864;24.990;2024-03-23T03:39:23;-4.80;99.90
30063;DHT22;16889;67.864;24.990;2024-03-23T03:44:09;-4.90;99.90
30063;DHT22;16889;67.864;24.990;2024-03-23T03:48:55;-4.90;99.90
30063;DHT22;16889;67.864;24.990;2024-03-23T03:53:41;-5.00;99.90
30063;DHT22;16889;67.864;24.990;2024-03-23T03:58:27;-5.00;99.90
30063;DHT22;16889;67.864;24.990;2024-03-23T04:03:14;-5.10;99.90
30063;DHT22;16889;67.864;24.990;2024-03-23T04:08:00;-5.20;99.90
30063;DHT22;16889;67.864;24.990;2024-03-23T04:12:50;-5.20;99.90
30063;DHT22;16889;67.864;24.990;2024-03-23T04:17:36;-5.20;99.90
30063;DHT22;16889;67.864;24.990;2024-03-23T04:22:22;-5.20;99.90
30063;DHT22;16889;67.864;24.990;2024-03-23T04:27:10;-5.10;99.90
30063;DHT22;16889;67.864;24.990;2024-03-23T04:31:56;-5.00;99.90
30063;DHT22;16889;67.864;24.990;2024-03-23T04:36:42;-5.10;99.90
30063;DHT22;16889;67.864;24.990;2024-03-23T04:41:28;-5.10;99.90
30063;DHT22;16889;67.864;24.990;2024-03-23T04:46:15;-5.20;99.90
30063;DHT22;16889;67.864;24.990;2024-03-23T04:51:01;-5.20;99.90
30063;DHT22;16889;67.864;24.990;2024-03-23T04:55:47;-5.30;99.90
30063;DHT22;16889;67.864;24.990;2024-03-23T05:00:33;-5.30;99.90
30063;DHT22;16889;67.864;24.990;2024-03-23T05:05:19;-5.20;99.90
30063;DHT22;16889;67.864;24.990;2024-03-23T05:10:05;-5.20;99.90
30063;DHT22;16889;67.864;24.990;2024-03-23T05:15:01;-5.30;99.90
30063;DHT22;16889;67.864;24.990;2024-03-23T05:19:50;-5.40;99.90
30063;DHT22;16889;67.864;24.990;2024-03-23T05:24:36;-5.30;99.90
30063;DHT22;16889;67.864;24.990;2024-03-23T05:29:22;-5.30;99.90
30063;DHT22;16889;67.864;24.990;2024-03-23T05:34:09;-5.30;99.90
30063;DHT22;16889;67.864;24.990;2024-03-23T05:38:55;-5.20;99.90
30063;DHT22;16889;67.864;24.990;2024-03-23T05:43:41;-5.20;99.90
30063;DHT22;16889;67.864;24.990;2024-03-23T05:48:27;-5.10;99.90
30063;DHT22;16889;67.864;24.990;2024-03-23T05:53:14;-5.10;99.90
30063;DHT22;16889;67.864;24.990;2024-03-23T05:58:00;-5.20;99.90
30063;DHT22;16889;67.864;24.990;2024-03-23T06:02:46;-5.20;99.90
30063;DHT22;16889;67.864;24.990;2024-03-23T06:07:32;-5.10;99.90
30063;DHT22;16889;67.864;24.990;2024-03-23T06:12:18;-5.10;99.90
30063;DHT22;16889;67.864;24.990;2024-03-23T06:17:08;-5.10;99.90
30063;DHT22;16889;67.864;24.990;2024-03-23T06:21:55;-5.20;99.90
30063;DHT22;16889;67.864;24.990;2024-03-23T06:26:41;-5.10;99.90
30063;DHT22;16889;67.864;24.990;2024-03-23T06:31:27;-5.10;99.90
30063;DHT22;16889;67.864;24.990;2024-03-23T06:36:14;-4.80;99.90
30063;DHT22;16889;67.864;24.990;2024-03-23T06:41:02;-4.80;99.90
30063;DHT22;16889;67.864;24.990;2024-03-23T06:45:55;-4.80;99.90
30063;DHT22;16889;67.864;24.990;2024-03-23T06:50:41;-4.70;99.90
30063;DHT22;16889;67.864;24.990;2024-03-23T06:55:27;-4.60;99.90
30063;DHT22;16889;67.864;24.990;2024-03-23T07:00:14;-4.30;99.90
30063;DHT22;16889;67.864;24.990;2024-03-23T07:05:01;-4.10;99.90
30063;DHT22;16889;67.864;24.990;2024-03-23T07:09:48;-3.90;99.90
30063;DHT22;16889;67.864;24.990;2024-03-23T07:14:34;-3.80;99.90
30063;DHT22;16889;67.864;24.990;2024-03-23T07:19:20;-3.20;99.90
30063;DHT22;16889;67.864;24.990;2024-03-23T07:24:06;-3.30;99.90
30063;DHT22;16889;67.864;24.990;2024-03-23T07:28:52;-3.60;99.90
30063;DHT22;16889;67.864;24.990;2024-03-23T07:33:46;-3.90;99.90
30063;DHT22;16889;67.864;24.990;2024-03-23T07:38:32;-3.60;99.90
30063;DHT22;16889;67.864;24.990;2024-03-23T07:43:18;-3.60;99.90
30063;DHT22;16889;67.864;24.990;2024-03-23T07:48:05;-3.60;99.90
30063;DHT22;16889;67.864;24.990;2024-03-23T07:52:51;-3.60;99.90
30063;DHT22;16889;67.864;24.990;2024-03-23T07:57:36;-3.60;99.90
30063;DHT22;16889;67.864;24.990;2024-03-23T08:02:22;-3.60;99.90
30063;DHT22;16889;67.864;24.990;2024-03-23T08:07:08;-3.80;99.90
30063;DHT22;16889;67.864;24.990;2024-03-23T08:11:54;-3.60;99.90
30063;DHT22;16889;67.864;24.990;2024-03-23T08:16:40;-3.10;99.90
30063;DHT22;16889;67.864;24.990;2024-03-23T08:21:27;-2.70;99.90
30063;DHT22;16889;67.864;24.990;2024-03-23T08:26:15;-2.70;99.90
30063;DHT22;16889;67.864;24.990;2024-03-23T08:31:03;-3.00;99.90
30063;DHT22;16889;67.864;24.990;2024-03-23T08:35:59;-3.30;99.90
30063;DHT22;16889;67.864;24.990;2024-03-23T08:40:45;-3.30;99.90
30063;DHT22;16889;67.864;24.990;2024-03-23T08:45:31;-3.20;99.90
30063;DHT22;16889;67.864;24.990;2024-03-23T08:50:18;-3.10;99.90
30063;DHT22;16889;67.864;24.990;2024-03-23T08:55:04;-3.10;99.90
30063;DHT22;16889;67.864;24.990;2024-03-23T08:59:51;-3.20;99.90
30063;DHT22;16889;67.864;24.990;2024-03-23T09:04:36;-3.10;99.90
30063;DHT22;16889;67.864;24.990;2024-03-23T09:09:22;-3.00;99.90
30063;DHT22;16889;67.864;24.990;2024-03-23T09:14:08;-2.50;99.90
30063;DHT22;16889;67.864;24.990;2024-03-23T09:18:54;-2.60;99.90
30063;DHT22;16889;67.864;24.990;2024-03-23T09:23:43;-2.70;99.90
30063;DHT22;16889;67.864;24.990;2024-03-23T09:28:29;-2.60;99.90
30063;DHT22;16889;67.864;24.990;2024-03-23T09:33:16;-1.90;99.90
30063;DHT22;16889;67.864;24.990;2024-03-23T09:38:05;-2.00;99.90
30063;DHT22;16889;67.864;24.990;2024-03-23T09:42:52;-2.10;99.90
30063;DHT22;16889;67.864;24.990;2024-03-23T09:47:38;-2.10;99.90
30063;DHT22;16889;67.864;24.990;2024-03-23T09:52:24;-2.20;99.90
30063;DHT22;16889;67.864;24.990;2024-03-23T09:57:10;-1.40;99.90
30063;DHT22;16889;67.864;24.990;2024-03-23T10:01:56;-0.60;99.90
30063;DHT22;16889;67.864;24.990;2024-03-23T10:06:42;-1.10;99.90
30063;DHT22;16889;67.864;24.990;2024-03-23T10:11:28;-1.00;99.90
30063;DHT22;16889;67.864;24.990;2024-03-23T10:16:24;-0.10;99.90
30063;DHT22;16889;67.864;24.990;2024-03-23T10:21:10;-0.70;99.90
30063;DHT22;16889;67.864;24.990;2024-03-23T10:26:22;-1.00;99.90
30063;DHT22;16889;67.864;24.990;2024-03-23T10:31:11;-1.60;99.90
30063;DHT22;16889;67.864;24.990;2024-03-23T10:35:58;-1.90;99.90
30063;DHT22;16889;67.864;24.990;2024-03-23T10:40:44;-1.90;99.90
30063;DHT22;16889;67.864;24.990;2024-03-23T10:45:31;-1.70;99.90
30063;DHT22;16889;67.864;24.990;2024-03-23T10:50:17;-1.70;99.90
30063;DHT22;16889;67.864;24.990;2024-03-23T10:55:06;-1.90;99.90
30063;DHT22;16889;67.864;24.990;2024-03-23T10:59:53;-1.90;99.90
30063;DHT22;16889;67.864;24.990;2024-03-23T11:04:39;-1.80;99.90
30063;DHT22;16889;67.864;24.990;2024-03-23T11:09:43;-0.50;99.90
30063;DHT22;16889;67.864;24.990;2024-03-23T11:14:32;0.10;99.90
30063;DHT22;16889;67.864;24.990;2024-03-23T11:24:42;-0.60;99.90
30063;DHT22;16889;67.864;24.990;2024-03-23T11:29:29;-1.40;99.90
30063;DHT22;16889;67.864;24.990;2024-03-23T11:34:15;-1.60;99.90
30063;DHT22;16889;67.864;24.990;2024-03-23T11:39:12;-1.90;99.90
30063;DHT22;16889;67.864;24.990;2024-03-23T11:43:59;-2.00;99.90
30063;DHT22;16889;67.864;24.990;2024-03-23T11:48:59;-1.90;99.90
30063;DHT22;16889;67.864;24.990;2024-03-23T11:53:45;-1.90;99.90
30063;DHT22;16889;67.864;24.990;2024-03-23T11:58:31;-1.80;99.90
30063;DHT22;16889;67.864;24.990;2024-03-23T12:03:19;-1.50;99.90
30063;DHT22;16889;67.864;24.990;2024-03-23T12:08:25;-1.50;99.90
30063;DHT22;16889;67.864;24.990;2024-03-23T12:13:18;-1.40;99.90
30063;DHT22;16889;67.864;24.990;2024-03-23T12:18:10;-1.20;99.90
30063;DHT22;16889;67.864;24.990;2024-03-23T12:23:05;-1.50;99.90
30063;DHT22;16889;67.864;24.990;2024-03-23T12:27:52;-1.40;99.90
30063;DHT22;16889;67.864;24.990;2024-03-23T12:32:38;-1.40;99.90
30063;DHT22;16889;67.864;24.990;2024-03-23T12:37:23;-1.40;99.90
30063;DHT22;16889;67.864;24.990;2024-03-23T12:42:09;-1.60;99.90
30063;DHT22;16889;67.864;24.990;2024-03-23T12:46:55;-1.80;99.90
30063;DHT22;16889;67.864;24.990;2024-03-23T12:51:54;-1.80;99.90
30063;DHT22;16889;67.864;24.990;2024-03-23T12:56:41;-2.00;99.90
30063;DHT22;16889;67.864;24.990;2024-03-23T13:01:27;-2.10;99.90
30063;DHT22;16889;67.864;24.990;2024-03-23T13:06:13;-2.00;99.90
30063;DHT22;16889;67.864;24.990;2024-03-23T13:10:59;-1.90;99.90
30063;DHT22;16889;67.864;24.990;2024-03-23T13:15:51;-1.90;99.90
30063;DHT22;16889;67.864;24.990;2024-03-23T13:20:37;-1.90;99.90
30063;DHT22;16889;67.864;24.990;2024-03-23T13:25:23;-2.00;99.90
30063;DHT22;16889;67.864;24.990;2024-03-23T13:30:09;-2.10;99.90
30063;DHT22;16889;67.864;24.990;2024-03-23T13:34:55;-2.00;99.90
30063;DHT22;16889;67.864;24.990;2024-03-23T13:39:41;-1.80;99.90
30063;DHT22;16889;67.864;24.990;2024-03-23T13:44:27;-1.80;99.90
30063;DHT22;16889;67.864;24.990;2024-03-23T13:49:34;-1.90;99.90
30063;DHT22;16889;67.864;24.990;2024-03-23T13:54:21;-2.00;99.90
30063;DHT22;16889;67.864;24.990;2024-03-23T13:59:07;-2.10;99.90
30063;DHT22;16889;67.864;24.990;2024-03-23T14:03:53;-2.30;99.90
30063;DHT22;16889;67.864;24.990;2024-03-23T14:08:41;-2.40;99.90
30063;DHT22;16889;67.864;24.990;2024-03-23T14:13:28;-2.40;99.90
30063;DHT22;16889;67.864;24.990;2024-03-23T14:18:14;-2.50;99.90
30063;DHT22;16889;67.864;24.990;2024-03-23T14:23:00;-2.60;99.90
30063;DHT22;16889;67.864;24.990;2024-03-23T14:27:46;-2.50;99.90
30063;DHT22;16889;67.864;24.990;2024-03-23T14:32:33;-2.50;99.90
30063;DHT22;16889;67.864;24.990;2024-03-23T14:37:22;-2.50;99.90
30063;DHT22;16889;67.864;24.990;2024-03-23T14:42:08;-2.40;99.90
30063;DHT22;16889;67.864;24.990;2024-03-23T14:46:55;-2.40;99.90
30063;DHT22;16889;67.864;24.990;2024-03-23T14:51:41;-2.40;99.90
30063;DHT22;16889;67.864;24.990;2024-03-23T14:56:27;-2.40;99.90
30063;DHT22;16889;67.864;24.990;2024-03-23T15:01:13;-2.40;99.90
30063;DHT22;16889;67.864;24.990;2024-03-23T15:05:59;-2.50;99.90
30063;DHT22;16889;67.864;24.990;2024-03-23T15:10:45;-2.50;99.90
30063;DHT22;16889;67.864;24.990;2024-03-23T15:15:31;-2.60;99.90
30063;DHT22;16889;67.864;24.990;2024-03-23T15:20:24;-2.60;99.90
30063;DHT22;16889;67.864;24.990;2024-03-23T15:25:10;-2.80;99.90
30063;DHT22;16889;67.864;24.990;2024-03-23T15:29:56;-2.80;99.90
30063;DHT22;16889;67.864;24.990;2024-03-23T15:34:43;-2.90;99.90
30063;DHT22;16889;67.864;24.990;2024-03-23T15:39:29;-3.00;99.90
30063;DHT22;16889;67.864;24.990;2024-03-23T15:44:15;-3.10;99.90
30063;DHT22;16889;67.864;24.990;2024-03-23T15:49:01;-3.10;99.90
30063;DHT22;16889;67.864;24.990;2024-03-23T15:53:47;-3.30;99.90
30063;DHT22;16889;67.864;24.990;2024-03-23T15:58:33;-3.50;99.90
30063;DHT22;16889;67.864;24.990;2024-03-23T16:03:23;-3.60;99.90
30063;DHT22;16889;67.864;24.990;2024-03-23T16:08:09;-3.60;99.90
30063;DHT22;16889;67.864;24.990;2024-03-23T16:12:55;-3.70;99.90
30063;DHT22;16889;67.864;24.990;2024-03-23T16:17:41;-4.00;99.90
30063;DHT22;16889;67.864;24.990;2024-03-23T16:22:27;-4.30;99.90
30063;DHT22;16889;67.864;24.990;2024-03-23T16:27:13;-4.70;99.90
30063;DHT22;16889;67.864;24.990;2024-03-23T16:31:59;-4.80;99.90
30063;DHT22;16889;67.864;24.990;2024-03-23T16:36:44;-4.60;99.90
30063;DHT22;16889;67.864;24.990;2024-03-23T16:41:30;-4.60;99.90
30063;DHT22;16889;67.864;24.990;2024-03-23T16:46:16;-4.80;99.90
30063;DHT22;16889;67.864;24.990;2024-03-23T16:51:03;-5.00;99.90
30063;DHT22;16889;67.864;24.990;2024-03-23T16:56:19;-5.30;99.90
30063;DHT22;16889;67.864;24.990;2024-03-23T17:01:09;-5.30;99.90
30063;DHT22;16889;67.864;24.990;2024-03-23T17:05:58;-5.50;99.90
30063;DHT22;16889;67.864;24.990;2024-03-23T17:10:44;-5.70;99.90
30063;DHT22;16889;67.864;24.990;2024-03-23T17:15:30;-5.70;99.90
30063;DHT22;16889;67.864;24.990;2024-03-23T17:20:16;-5.60;99.90
30063;DHT22;16889;67.864;24.990;2024-03-23T17:25:03;-5.60;99.90
30063;DHT22;16889;67.864;24.990;2024-03-23T17:29:49;-5.70;99.90
30063;DHT22;16889;67.864;24.990;2024-03-23T17:34:35;-5.90;99.90
30063;DHT22;16889;67.864;24.990;2024-03-23T17:39:21;-6.20;99.90
30063;DHT22;16889;67.864;24.990;2024-03-23T17:44:07;-6.20;99.90
30063;DHT22;16889;67.864;24.990;2024-03-23T17:48:53;-6.20;99.90
30063;DHT22;16889;67.864;24.990;2024-03-23T17:53:39;-6.20;99.90
30063;DHT22;16889;67.864;24.990;2024-03-23T17:58:25;-6.30;99.90
30063;DHT22;16889;67.864;24.990;2024-03-23T18:03:11;-6.40;99.90
30063;DHT22;16889;67.864;24.990;2024-03-23T18:07:57;-6.80;99.90
30063;DHT22;16889;67.864;24.990;2024-03-23T18:12:43;-6.80;99.90
30063;DHT22;16889;67.864;24.990;2024-03-23T18:17:31;-6.80;99.90
30063;DHT22;16889;67.864;24.990;2024-03-23T18:22:17;-6.90;99.90
30063;DHT22;16889;67.864;24.990;2024-03-23T18:27:03;-7.10;99.90
30063;DHT22;16889;67.864;24.990;2024-03-23T18:31:49;-7.00;99.90
30063;DHT22;16889;67.864;24.990;2024-03-23T18:36:36;-6.90;99.90
30063;DHT22;16889;67.864;24.990;2024-03-23T18:41:22;-7.10;99.90
30063;DHT22;16889;67.864;24.990;2024-03-23T18:46:08;-7.30;99.90
30063;DHT22;16889;67.864;24.990;2024-03-23T18:50:54;-7.60;99.90
30063;DHT22;16889;67.864;24.990;2024-03-23T18:55:41;-7.70;99.90
30063;DHT22;16889;67.864;24.990;2024-03-23T19:00:30;-7.90;99.90
30063;DHT22;16889;67.864;24.990;2024-03-23T19:05:16;-8.10;99.90
30063;DHT22;16889;67.864;24.990;2024-03-23T19:10:02;-8.20;99.90
30063;DHT22;16889;67.864;24.990;2024-03-23T19:14:48;-8.40;99.90
30063;DHT22;16889;67.864;24.990;2024-03-23T19:19:35;-8.50;99.90
30063;DHT22;16889;67.864;24.990;2024-03-23T19:24:21;-8.40;99.90
30063;DHT22;16889;67.864;24.990;2024-03-23T19:29:07;-8.50;99.90
30063;DHT22;16889;67.864;24.990;2024-03-23T19:33:53;-8.60;99.90
30063;DHT22;16889;67.864;24.990;2024-03-23T19:38:39;-8.70;99.90
30063;DHT22;16889;67.864;24.990;2024-03-23T19:43:25;-8.70;99.90
30063;DHT22;16889;67.864;24.990;2024-03-23T19:48:11;-8.80;99.90
30063;DHT22;16889;67.864;24.990;2024-03-23T19:52:57;-9.00;99.90
30063;DHT22;16889;67.864;24.990;2024-03-23T19:57:43;-9.00;99.90
30063;DHT22;16889;67.864;24.990;2024-03-23T20:02:29;-9.10;99.90
30063;DHT22;16889;67.864;24.990;2024-03-23T20:07:15;-9.30;99.90
30063;DHT22;16889;67.864;24.990;2024-03-23T20:12:01;-9.40;99.90
30063;DHT22;16889;67.864;24.990;2024-03-23T20:16:47;-9.50;99.90
30063;DHT22;16889;67.864;24.990;2024-03-23T20:21:34;-9.50;99.90
30063;DHT22;16889;67.864;24.990;2024-03-23T20:26:20;-9.50;99.90
30063;DHT22;16889;67.864;24.990;2024-03-23T20:31:08;-9.50;99.90
30063;DHT22;16889;67.864;24.990;2024-03-23T20:35:54;-9.50;99.90
30063;DHT22;16889;67.864;24.990;2024-03-23T20:40:40;-9.60;99.90
30063;DHT22;16889;67.864;24.990;2024-03-23T20:45:26;-9.70;99.90
30063;DHT22;16889;67.864;24.990;2024-03-23T20:50:12;-9.50;99.90
30063;DHT22;16889;67.864;24.990;2024-03-23T20:54:58;-9.70;99.90
30063;DHT22;16889;67.864;24.990;2024-03-23T20:59:44;-9.50;99.90
30063;DHT22;16889;67.864;24.990;2024-03-23T21:04:30;-9.50;99.90
30063;DHT22;16889;67.864;24.990;2024-03-23T21:09:17;-9.50;99.90
30063;DHT22;16889;67.864;24.990;2024-03-23T21:14:03;-9.50;99.90
30063;DHT22;16889;67.864;24.990;2024-03-23T21:18:48;-9.40;99.90
30063;DHT22;16889;67.864;24.990;2024-03-23T21:23:35;-9.40;99.90
30063;DHT22;16889;67.864;24.990;2024-03-23T21:28:21;-9.40;99.90
30063;DHT22;16889;67.864;24.990;2024-03-23T21:33:07;-9.30;99.90
30063;DHT22;16889;67.864;24.990;2024-03-23T21:37:53;-9.40;99.90
30063;DHT22;16889;67.864;24.990;2024-03-23T21:42:39;-9.30;99.90
30063;DHT22;16889;67.864;24.990;2024-03-23T21:47:25;-9.10;99.90
30063;DHT22;16889;67.864;24.990;2024-03-23T21:52:11;-9.20;99.90
30063;DHT22;16889;67.864;24.990;2024-03-23T21:56:57;-9.40;99.90
30063;DHT22;16889;67.864;24.990;2024-03-23T22:01:43;-9.60;99.90
30063;DHT22;16889;67.864;24.990;2024-03-23T22:06:29;-9.60;99.90
30063;DHT22;16889;67.864;24.990;2024-03-23T22:11:15;-9.70;99.90
30063;DHT22;16889;67.864;24.990;2024-03-23T22:16:02;-9.50;99.90
30063;DHT22;16889;67.864;24.990;2024-03-23T22:20:58;-9.40;99.90
30063;DHT22;16889;67.864;24.990;2024-03-23T22:25:51;-9.40;99.90
30063;DHT22;16889;67.864;24.990;2024-03-23T22:30:37;-9.60;99.90
30063;DHT22;16889;67.864;24.990;2024-03-23T22:35:23;-9.90;99.90
30063;DHT22;16889;67.864;24.990;2024-03-23T22:40:10;-9.80;99.90
30063;DHT22;16889;67.864;24.990;2024-03-23T22:44:55;-9.70;99.90
30063;DHT22;16889;67.864;24.990;2024-03-23T22:49:41;-9.70;99.90
30063;DHT22;16889;67.864;24.990;2024-03-23T22:54:27;-9.70;99.90
30063;DHT22;16889;67.864;24.990;2024-03-23T22:59:13;-9.80;99.90
30063;DHT22;16889;67.864;24.990;2024-03-23T23:03:59;-9.80;99.90
30063;DHT22;16889;67.864;24.990;2024-03-23T23:08:45;-9.80;99.90
30063;DHT22;16889;67.864;24.990;2024-03-23T23:13:31;-10.00;99.90
30063;DHT22;16889;67.864;24.990;2024-03-23T23:18:17;-10.10;99.90
30063;DHT22;16889;67.864;24.990;2024-03-23T23:23:03;-10.30;99.90
30063;DHT22;16889;67.864;24.990;2024-03-23T23:27:49;-10.30;99.90
30063;DHT22;16889;67.864;24.990;2024-03-23T23:32:36;-10.30;99.90
30063;DHT22;16889;67.864;24.990;2024-03-23T23:37:22;-10.30;99.90
30063;DHT22;16889;67.864;24.990;2024-03-23T23:42:08;-10.40;99.90
30063;DHT22;16889;67.864;24.990;2024-03-23T23:46:54;-10.70;99.90
30063;DHT22;16889;67.864;24.990;2024-03-23T23:51:40;-10.80;99.90
30063;DHT22;16889;67.864;24.990;2024-03-23T23:56:26;-10.60;99.90
